Time;durP1;ratioP1;P1;durP2;ratioP2;P2;SDS_P1;SDS_P2;PMS_P1;PMS_P2;Temp;Humidity;BMP_temperature;BMP_pressure;BME280_temperature;BME280_humidity;BME280_pressure;Samples;Min_cycle;Max_cycle;Signal;HPM_P1;HPM_P2
2023/08/09 20:40:34;;;;;;;2.33;2.13;;;12.80;99.90;;;;;;5093662;27;20550;-78
2023/08/09 20:43:00;;;;;;;3.65;2.20;;;12.50;99.90;;;;;;5094360;28;20177;-78
2023/08/09 20:45:28;;;;;;;3.28;1.75;;;12.50;99.90;;;;;;5096322;28;20183;-79
2023/08/09 20:47:54;;;;;;;5.03;2.20;;;12.50;99.90;;;;;;5073925;28;20184;-79
2023/08/09 20:50:22;;;;;;;3.17;2.08;;;12.50;99.90;;;;;;5075781;28;20201;-79
2023/08/09 20:52:48;;;;;;;4.70;2.10;;;12.40;99.90;;;;;;5072889;28;20177;-79
2023/08/09 20:55:14;;;;;;;2.53;2.13;;;12.40;99.90;;;;;;5074730;28;20709;-78
2023/08/09 20:57:41;;;;;;;4.38;2.00;;;12.50;99.90;;;;;;5073526;28;20193;-78
2023/08/09 21:00:14;;;;;;;2.15;1.85;;;12.50;99.90;;;;;;5071866;28;20200;-79
2023/08/09 21:02:43;;;;;;;2.17;2.00;;;12.40;99.90;;;;;;5089293;28;20193;-79
2023/08/09 21:05:09;;;;;;;2.60;2.30;;;12.20;99.90;;;;;;5072486;28;20170;-79
2023/08/09 21:07:49;;;;;;;2.47;2.13;;;12.10;99.90;;;;;;5072407;28;20197;-78
2023/08/09 21:10:15;;;;;;;5.10;2.03;;;12.10;99.90;;;;;;5088001;28;20292;-78
2023/08/09 21:12:42;;;;;;;4.22;2.20;;;12.00;99.90;;;;;;5070815;28;20205;-78
2023/08/09 21:15:08;;;;;;;1.98;1.88;;;12.10;99.90;;;;;;5087044;28;20222;-78
2023/08/09 21:17:34;;;;;;;2.85;2.30;;;12.00;99.90;;;;;;5086724;28;20206;-78
2023/08/09 21:20:00;;;;;;;2.38;2.17;;;12.10;99.90;;;;;;5069757;28;20178;-78
2023/08/09 21:22:26;;;;;;;6.55;2.25;;;12.00;99.90;;;;;;5070462;28;20272;-78
2023/08/09 21:24:51;;;;;;;2.40;2.20;;;11.90;99.90;;;;;;5070644;28;20643;-78
2023/08/09 21:27:17;;;;;;;5.75;2.00;;;11.90;99.90;;;;;;5069976;28;20197;-78
2023/08/09 21:29:42;;;;;;;4.30;2.00;;;11.90;99.90;;;;;;5070347;28;20209;-78
2023/08/09 21:32:08;;;;;;;2.30;2.10;;;11.90;99.90;;;;;;5069348;28;20176;-78
2023/08/09 21:34:35;;;;;;;3.60;2.10;;;11.90;99.90;;;;;;5069591;28;20222;-78
2023/08/09 21:37:01;;;;;;;3.50;2.00;;;11.90;99.90;;;;;;5069686;28;20194;-78
2023/08/09 21:39:26;;;;;;;4.22;2.00;;;11.90;99.90;;;;;;5070177;28;20197;-78
2023/08/09 21:41:52;;;;;;;3.85;2.03;;;11.90;99.90;;;;;;5069220;28;20180;-78
2023/08/09 21:44:18;;;;;;;3.10;2.20;;;11.80;99.90;;;;;;5069330;28;20217;-78
2023/08/09 21:46:43;;;;;;;2.60;2.40;;;11.80;99.90;;;;;;5069092;28;20224;-78
2023/08/09 21:49:09;;;;;;;2.40;2.20;;;11.70;99.90;;;;;;5070280;28;20207;-78
2023/08/09 21:51:34;;;;;;;4.32;2.38;;;11.70;99.90;;;;;;5058152;28;20178;-78
2023/08/09 21:54:00;;;;;;;3.70;2.40;;;11.70;99.90;;;;;;5056343;28;20642;-78
2023/08/09 21:56:25;;;;;;;5.40;2.30;;;11.60;99.90;;;;;;5056347;28;20198;-78
2023/08/09 21:58:51;;;;;;;4.15;2.17;;;11.50;99.90;;;;;;5072370;28;20182;-78
2023/08/09 22:01:27;;;;;;;5.38;2.47;;;11.50;99.90;;;;;;5055872;28;20196;-79
2023/08/09 22:03:53;;;;;;;4.38;2.30;;;11.50;99.90;;;;;;5072161;28;20552;-78
2023/08/09 22:06:18;;;;;;;2.70;2.30;;;11.50;99.90;;;;;;5055788;28;20198;-78
2023/08/09 22:08:44;;;;;;;2.65;2.45;;;11.40;99.90;;;;;;5056213;28;20213;-78
2023/08/09 22:11:09;;;;;;;3.88;2.50;;;11.50;99.90;;;;;;5055463;28;20178;-78
2023/08/09 22:13:35;;;;;;;3.70;2.42;;;11.40;99.90;;;;;;5055405;28;20231;-78
2023/08/09 22:16:01;;;;;;;5.13;2.55;;;11.30;99.90;;;;;;5056281;28;20198;-78
2023/08/09 22:18:27;;;;;;;2.28;2.08;;;11.30;99.90;;;;;;5072785;28;20188;-78
2023/08/09 22:20:52;;;;;;;3.33;2.33;;;11.30;99.90;;;;;;5056789;28;20200;-78
2023/08/09 22:23:18;;;;;;;3.90;2.30;;;11.20;99.90;;;;;;5055170;28;20171;-78
2023/08/09 22:25:44;;;;;;;3.92;2.50;;;11.30;99.90;;;;;;5056238;28;20174;-78
2023/08/09 22:28:11;;;;;;;3.22;2.17;;;11.40;99.90;;;;;;5055036;28;20174;-78
2023/08/09 22:30:43;;;;;;;2.80;2.30;;;11.40;99.90;;;;;;5055430;28;20200;-78
2023/08/09 22:33:09;;;;;;;4.65;2.60;;;11.40;99.90;;;;;;5055108;28;20170;-78
2023/08/09 22:35:35;;;;;;;6.57;2.30;;;11.30;99.90;;;;;;5054866;28;20174;-78
2023/08/09 22:38:01;;;;;;;2.38;2.20;;;11.30;99.90;;;;;;5055666;28;20182;-78
2023/08/09 22:40:27;;;;;;;3.25;2.63;;;11.30;99.90;;;;;;5054790;28;20236;-78
2023/08/09 22:42:53;;;;;;;2.50;2.30;;;11.30;99.90;;;;;;5055072;28;20544;-78
2023/08/09 22:45:21;;;;;;;2.40;2.20;;;11.20;99.90;;;;;;5054795;28;20181;-78
2023/08/09 22:47:46;;;;;;;5.00;2.50;;;11.20;99.90;;;;;;5055414;28;20198;-78
2023/08/09 22:50:12;;;;;;;4.43;2.42;;;11.20;99.90;;;;;;5054407;28;20205;-78
2023/08/09 22:52:41;;;;;;;2.92;2.55;;;11.20;99.90;;;;;;5055297;28;20185;-78
2023/08/09 22:55:08;;;;;;;4.20;2.30;;;11.20;99.90;;;;;;5054847;28;20174;-78
2023/08/09 22:57:35;;;;;;;4.18;2.33;;;11.20;99.90;;;;;;5054863;28;20262;-79
2023/08/09 23:00:05;;;;;;;2.60;2.40;;;11.20;99.90;;;;;;5054899;28;20171;-79
2023/08/09 23:02:30;;;;;;;2.85;2.15;;;11.10;99.90;;;;;;5054519;28;20541;-78
2023/08/09 23:04:56;;;;;;;2.70;2.50;;;11.00;99.90;;;;;;5054567;28;20182;-78
2023/08/09 23:07:22;;;;;;;2.85;2.25;;;11.00;99.90;;;;;;5056018;28;20258;-78
2023/08/09 23:09:47;;;;;;;2.70;2.45;;;11.10;99.90;;;;;;5056017;28;20573;-78
2023/08/09 23:12:14;;;;;;;4.30;2.10;;;11.20;99.90;;;;;;5071020;28;20174;-78
2023/08/09 23:14:39;;;;;;;2.30;2.17;;;11.10;99.90;;;;;;5056497;28;20177;-78
2023/08/09 23:17:05;;;;;;;3.50;2.47;;;11.10;99.90;;;;;;5055148;28;20202;-78
2023/08/09 23:19:31;;;;;;;4.95;2.20;;;11.10;99.90;;;;;;5071359;28;20182;-78
2023/08/09 23:21:56;;;;;;;3.53;2.53;;;11.00;99.90;;;;;;5055440;28;20182;-78
2023/08/09 23:24:31;;;;;;;3.25;2.63;;;11.00;99.90;;;;;;5054504;28;20564;-78
2023/08/09 23:26:57;;;;;;;2.20;2.10;;;11.00;99.90;;;;;;5054445;28;20212;-78
2023/08/09 23:29:22;;;;;;;7.38;2.50;;;11.00;99.90;;;;;;5055516;28;20209;-78
2023/08/09 23:31:48;;;;;;;5.38;2.50;;;11.00;99.90;;;;;;5054584;28;20174;-78
2023/08/09 23:34:14;;;;;;;4.03;2.17;;;11.00;99.90;;;;;;5054378;28;20181;-78
2023/08/09 23:36:40;;;;;;;2.70;2.50;;;11.00;99.90;;;;;;5055715;28;20605;-78
2023/08/09 23:39:07;;;;;;;2.78;2.53;;;10.80;99.90;;;;;;5054480;28;20198;-78
2023/08/09 23:41:33;;;;;;;2.85;2.40;;;10.80;99.90;;;;;;5055171;28;20178;-78
2023/08/09 23:43:58;;;;;;;3.20;2.90;;;10.80;99.90;;;;;;5054220;28;20212;-78
2023/08/09 23:46:24;;;;;;;4.03;2.60;;;10.80;99.90;;;;;;5054153;28;20202;-78
2023/08/09 23:48:49;;;;;;;5.00;2.78;;;10.60;99.90;;;;;;5054108;28;20202;-78
2023/08/09 23:51:15;;;;;;;4.10;2.47;;;10.60;99.90;;;;;;5054737;28;20177;-78
2023/08/09 23:53:40;;;;;;;5.32;2.60;;;10.60;99.90;;;;;;5054067;28;20304;-78
2023/08/09 23:56:06;;;;;;;5.30;2.33;;;10.60;99.90;;;;;;5054019;28;20221;-78
2023/08/09 23:58:32;;;;;;;3.78;2.65;;;10.60;99.90;;;;;;5053665;28;20189;-78
